sensor_id;sensor_type;location;lat;lon;timestamp;P1;durP1;ratioP1;P2;durP2;ratioP2
34359;SDS011;20624;55.870;26.506;2022-08-21T00:00:16;7.85;;;2.15;;
34359;SDS011;20624;55.870;26.506;2022-08-21T00:02:46;5.70;;;1.92;;
34359;SDS011;20624;55.870;26.506;2022-08-21T00:05:19;9.00;;;1.65;;
34359;SDS011;20624;55.870;26.506;2022-08-21T00:07:47;11.10;;;2.08;;
34359;SDS011;20624;55.870;26.506;2022-08-21T00:10:15;12.48;;;2.35;;
34359;SDS011;20624;55.870;26.506;2022-08-21T00:12:44;10.02;;;2.13;;
34359;SDS011;20624;55.870;26.506;2022-08-21T00:15:14;5.88;;;1.92;;
34359;SDS011;20624;55.870;26.506;2022-08-21T00:17:43;10.77;;;1.88;;
34359;SDS011;20624;55.870;26.506;2022-08-21T00:20:12;10.60;;;1.42;;
34359;SDS011;20624;55.870;26.506;2022-08-21T00:22:41;5.72;;;2.38;;
34359;SDS011;20624;55.870;26.506;2022-08-21T00:25:09;5.80;;;2.10;;
34359;SDS011;20624;55.870;26.506;2022-08-21T00:27:37;7.68;;;2.03;;
34359;SDS011;20624;55.870;26.506;2022-08-21T00:30:05;6.03;;;1.77;;
34359;SDS011;20624;55.870;26.506;2022-08-21T00:32:34;11.75;;;3.08;;
34359;SDS011;20624;55.870;26.506;2022-08-21T00:35:07;5.97;;;2.15;;
34359;SDS011;20624;55.870;26.506;2022-08-21T00:37:38;4.40;;;1.70;;
34359;SDS011;20624;55.870;26.506;2022-08-21T00:40:08;9.55;;;2.63;;
34359;SDS011;20624;55.870;26.506;2022-08-21T00:42:38;6.18;;;1.85;;
34359;SDS011;20624;55.870;26.506;2022-08-21T00:45:07;5.55;;;1.83;;
34359;SDS011;20624;55.870;26.506;2022-08-21T00:47:35;7.25;;;2.13;;
34359;SDS011;20624;55.870;26.506;2022-08-21T00:50:04;8.60;;;1.63;;
34359;SDS011;20624;55.870;26.506;2022-08-21T00:52:40;6.97;;;2.20;;
34359;SDS011;20624;55.870;26.506;2022-08-21T00:55:10;5.20;;;1.75;;
34359;SDS011;20624;55.870;26.506;2022-08-21T00:57:42;7.50;;;1.80;;
34359;SDS011;20624;55.870;26.506;2022-08-21T01:00:18;7.85;;;1.90;;
34359;SDS011;20624;55.870;26.506;2022-08-21T01:02:57;9.88;;;1.65;;
34359;SDS011;20624;55.870;26.506;2022-08-21T01:05:26;3.75;;;1.35;;
34359;SDS011;20624;55.870;26.506;2022-08-21T01:07:54;4.18;;;1.80;;
34359;SDS011;20624;55.870;26.506;2022-08-21T01:10:25;10.73;;;2.03;;
34359;SDS011;20624;55.870;26.506;2022-08-21T01:12:53;5.15;;;1.83;;
34359;SDS011;20624;55.870;26.506;2022-08-21T01:15:30;5.05;;;1.85;;
34359;SDS011;20624;55.870;26.506;2022-08-21T01:18:02;8.65;;;1.88;;
34359;SDS011;20624;55.870;26.506;2022-08-21T01:20:30;18.20;;;2.10;;
34359;SDS011;20624;55.870;26.506;2022-08-21T01:22:59;5.05;;;1.77;;
34359;SDS011;20624;55.870;26.506;2022-08-21T01:25:28;8.63;;;2.45;;
34359;SDS011;20624;55.870;26.506;2022-08-21T01:27:56;5.95;;;1.42;;
34359;SDS011;20624;55.870;26.506;2022-08-21T01:30:28;3.55;;;1.73;;
34359;SDS011;20624;55.870;26.506;2022-08-21T01:32:55;9.77;;;2.20;;
34359;SDS011;20624;55.870;26.506;2022-08-21T01:35:24;5.43;;;1.90;;
34359;SDS011;20624;55.870;26.506;2022-08-21T01:37:52;11.52;;;2.17;;
34359;SDS011;20624;55.870;26.506;2022-08-21T01:40:20;14.55;;;3.05;;
34359;SDS011;20624;55.870;26.506;2022-08-21T01:42:48;12.77;;;2.55;;
34359;SDS011;20624;55.870;26.506;2022-08-21T01:45:15;6.72;;;2.10;;
34359;SDS011;20624;55.870;26.506;2022-08-21T01:47:45;8.63;;;2.80;;
34359;SDS011;20624;55.870;26.506;2022-08-21T01:50:14;8.18;;;2.65;;
34359;SDS011;20624;55.870;26.506;2022-08-21T01:52:44;3.78;;;1.95;;
34359;SDS011;20624;55.870;26.506;2022-08-21T01:55:12;6.32;;;1.67;;
34359;SDS011;20624;55.870;26.506;2022-08-21T01:57:43;7.28;;;1.98;;
34359;SDS011;20624;55.870;26.506;2022-08-21T02:00:11;7.85;;;1.70;;
34359;SDS011;20624;55.870;26.506;2022-08-21T02:02:41;8.93;;;2.50;;
34359;SDS011;20624;55.870;26.506;2022-08-21T02:05:09;7.00;;;2.33;;
34359;SDS011;20624;55.870;26.506;2022-08-21T02:07:42;11.40;;;2.38;;
34359;SDS011;20624;55.870;26.506;2022-08-21T02:10:15;5.45;;;2.33;;
34359;SDS011;20624;55.870;26.506;2022-08-21T02:12:45;11.23;;;2.95;;
34359;SDS011;20624;55.870;26.506;2022-08-21T02:15:13;4.07;;;2.08;;
34359;SDS011;20624;55.870;26.506;2022-08-21T02:17:45;7.30;;;2.25;;
34359;SDS011;20624;55.870;26.506;2022-08-21T02:20:16;9.38;;;2.42;;
34359;SDS011;20624;55.870;26.506;2022-08-21T02:23:10;12.15;;;2.35;;
34359;SDS011;20624;55.870;26.506;2022-08-21T02:25:38;7.63;;;2.08;;
34359;SDS011;20624;55.870;26.506;2022-08-21T02:28:07;8.63;;;2.25;;
34359;SDS011;20624;55.870;26.506;2022-08-21T02:30:37;6.15;;;1.70;;
34359;SDS011;20624;55.870;26.506;2022-08-21T02:33:07;8.35;;;1.60;;
34359;SDS011;20624;55.870;26.506;2022-08-21T02:35:38;2.88;;;1.75;;
34359;SDS011;20624;55.870;26.506;2022-08-21T02:38:09;7.00;;;1.73;;
34359;SDS011;20624;55.870;26.506;2022-08-21T02:40:43;4.70;;;1.63;;
34359;SDS011;20624;55.870;26.506;2022-08-21T02:43:17;5.50;;;2.10;;
34359;SDS011;20624;55.870;26.506;2022-08-21T02:45:45;4.32;;;2.08;;
34359;SDS011;20624;55.870;26.506;2022-08-21T02:48:15;7.10;;;2.40;;
34359;SDS011;20624;55.870;26.506;2022-08-21T02:50:47;4.05;;;1.77;;
34359;SDS011;20624;55.870;26.506;2022-08-21T02:53:19;4.88;;;2.30;;
34359;SDS011;20624;55.870;26.506;2022-08-21T02:55:48;6.45;;;1.80;;
34359;SDS011;20624;55.870;26.506;2022-08-21T03:00:46;5.68;;;1.52;;
34359;SDS011;20624;55.870;26.506;2022-08-21T03:03:14;11.82;;;3.55;;
34359;SDS011;20624;55.870;26.506;2022-08-21T03:05:42;11.30;;;2.40;;
34359;SDS011;20624;55.870;26.506;2022-08-21T03:08:11;5.25;;;1.83;;
34359;SDS011;20624;55.870;26.506;2022-08-21T03:10:46;5.68;;;2.33;;
34359;SDS011;20624;55.870;26.506;2022-08-21T03:13:16;7.07;;;2.10;;
34359;SDS011;20624;55.870;26.506;2022-08-21T03:15:45;7.75;;;2.00;;
34359;SDS011;20624;55.870;26.506;2022-08-21T03:18:14;3.53;;;1.67;;
34359;SDS011;20624;55.870;26.506;2022-08-21T03:20:42;6.63;;;1.83;;
34359;SDS011;20624;55.870;26.506;2022-08-21T03:23:11;7.97;;;2.03;;
34359;SDS011;20624;55.870;26.506;2022-08-21T03:25:44;5.32;;;1.50;;
34359;SDS011;20624;55.870;26.506;2022-08-21T03:28:13;8.10;;;2.55;;
34359;SDS011;20624;55.870;26.506;2022-08-21T03:30:42;3.58;;;1.73;;
34359;SDS011;20624;55.870;26.506;2022-08-21T03:33:12;5.28;;;1.70;;
34359;SDS011;20624;55.870;26.506;2022-08-21T03:35:45;3.55;;;2.00;;
34359;SDS011;20624;55.870;26.506;2022-08-21T03:38:15;5.10;;;1.65;;
34359;SDS011;20624;55.870;26.506;2022-08-21T03:40:45;5.85;;;2.08;;
34359;SDS011;20624;55.870;26.506;2022-08-21T03:43:13;8.63;;;2.13;;
34359;SDS011;20624;55.870;26.506;2022-08-21T03:45:41;4.95;;;2.22;;
34359;SDS011;20624;55.870;26.506;2022-08-21T03:48:09;8.80;;;2.25;;
34359;SDS011;20624;55.870;26.506;2022-08-21T03:50:39;5.50;;;1.60;;
34359;SDS011;20624;55.870;26.506;2022-08-21T03:55:43;7.55;;;2.55;;
34359;SDS011;20624;55.870;26.506;2022-08-21T03:58:13;7.03;;;2.22;;
34359;SDS011;20624;55.870;26.506;2022-08-21T04:00:46;11.10;;;2.22;;
34359;SDS011;20624;55.870;26.506;2022-08-21T04:03:17;4.47;;;2.40;;
34359;SDS011;20624;55.870;26.506;2022-08-21T04:05:46;6.38;;;2.00;;
34359;SDS011;20624;55.870;26.506;2022-08-21T04:08:14;6.60;;;2.00;;
34359;SDS011;20624;55.870;26.506;2022-08-21T04:10:45;5.03;;;1.85;;
34359;SDS011;20624;55.870;26.506;2022-08-21T04:13:14;5.03;;;1.70;;
34359;SDS011;20624;55.870;26.506;2022-08-21T04:15:42;8.77;;;2.45;;
34359;SDS011;20624;55.870;26.506;2022-08-21T04:18:10;5.10;;;2.10;;
34359;SDS011;20624;55.870;26.506;2022-08-21T04:20:38;6.50;;;1.75;;
34359;SDS011;20624;55.870;26.506;2022-08-21T04:23:10;6.10;;;1.58;;
34359;SDS011;20624;55.870;26.506;2022-08-21T04:25:51;10.93;;;2.03;;
34359;SDS011;20624;55.870;26.506;2022-08-21T04:28:20;7.90;;;2.70;;
34359;SDS011;20624;55.870;26.506;2022-08-21T04:30:54;8.38;;;2.17;;
34359;SDS011;20624;55.870;26.506;2022-08-21T04:33:22;6.47;;;1.70;;
34359;SDS011;20624;55.870;26.506;2022-08-21T04:35:50;7.63;;;1.65;;
34359;SDS011;20624;55.870;26.506;2022-08-21T04:38:18;6.32;;;1.65;;
34359;SDS011;20624;55.870;26.506;2022-08-21T04:40:47;7.97;;;2.00;;
34359;SDS011;20624;55.870;26.506;2022-08-21T04:43:16;3.53;;;1.70;;
34359;SDS011;20624;55.870;26.506;2022-08-21T04:45:45;9.43;;;2.13;;
34359;SDS011;20624;55.870;26.506;2022-08-21T04:48:14;6.28;;;1.55;;
34359;SDS011;20624;55.870;26.506;2022-08-21T04:53:34;7.63;;;1.77;;
34359;SDS011;20624;55.870;26.506;2022-08-21T04:58:58;7.15;;;2.17;;
34359;SDS011;20624;55.870;26.506;2022-08-21T05:01:31;3.83;;;1.70;;
34359;SDS011;20624;55.870;26.506;2022-08-21T05:04:02;8.20;;;2.63;;
34359;SDS011;20624;55.870;26.506;2022-08-21T05:06:33;6.68;;;2.05;;
34359;SDS011;20624;55.870;26.506;2022-08-21T05:09:03;8.57;;;2.08;;
34359;SDS011;20624;55.870;26.506;2022-08-21T05:11:31;6.95;;;2.03;;
34359;SDS011;20624;55.870;26.506;2022-08-21T05:14:01;5.03;;;2.22;;
34359;SDS011;20624;55.870;26.506;2022-08-21T05:16:29;9.00;;;2.08;;
34359;SDS011;20624;55.870;26.506;2022-08-21T05:19:03;9.25;;;2.47;;
34359;SDS011;20624;55.870;26.506;2022-08-21T05:21:31;13.52;;;1.98;;
34359;SDS011;20624;55.870;26.506;2022-08-21T05:23:59;7.22;;;1.80;;
34359;SDS011;20624;55.870;26.506;2022-08-21T05:26:26;8.82;;;1.75;;
34359;SDS011;20624;55.870;26.506;2022-08-21T05:28:54;7.57;;;2.05;;
34359;SDS011;20624;55.870;26.506;2022-08-21T05:31:24;5.90;;;2.05;;
34359;SDS011;20624;55.870;26.506;2022-08-21T05:33:52;7.53;;;2.03;;
34359;SDS011;20624;55.870;26.506;2022-08-21T05:36:21;9.32;;;2.85;;
34359;SDS011;20624;55.870;26.506;2022-08-21T05:38:49;6.55;;;2.17;;
34359;SDS011;20624;55.870;26.506;2022-08-21T05:41:17;6.20;;;1.92;;
34359;SDS011;20624;55.870;26.506;2022-08-21T05:43:44;8.93;;;2.22;;
34359;SDS011;20624;55.870;26.506;2022-08-21T05:46:12;12.80;;;2.88;;
34359;SDS011;20624;55.870;26.506;2022-08-21T05:48:40;4.10;;;2.10;;
34359;SDS011;20624;55.870;26.506;2022-08-21T05:51:09;10.38;;;2.40;;
34359;SDS011;20624;55.870;26.506;2022-08-21T05:53:39;6.13;;;2.00;;
34359;SDS011;20624;55.870;26.506;2022-08-21T05:56:08;7.38;;;2.03;;
34359;SDS011;20624;55.870;26.506;2022-08-21T05:58:36;10.00;;;2.30;;
34359;SDS011;20624;55.870;26.506;2022-08-21T06:01:05;8.13;;;1.95;;
34359;SDS011;20624;55.870;26.506;2022-08-21T06:06:05;9.65;;;2.30;;
34359;SDS011;20624;55.870;26.506;2022-08-21T06:08:33;8.57;;;2.38;;
34359;SDS011;20624;55.870;26.506;2022-08-21T06:11:01;11.40;;;2.03;;
34359;SDS011;20624;55.870;26.506;2022-08-21T06:16:11;9.07;;;1.90;;
34359;SDS011;20624;55.870;26.506;2022-08-21T06:18:41;7.28;;;2.13;;
34359;SDS011;20624;55.870;26.506;2022-08-21T06:21:09;7.05;;;2.08;;
34359;SDS011;20624;55.870;26.506;2022-08-21T06:23:38;9.35;;;2.10;;
34359;SDS011;20624;55.870;26.506;2022-08-21T06:26:06;6.03;;;2.00;;
34359;SDS011;20624;55.870;26.506;2022-08-21T06:28:34;11.00;;;1.92;;
34359;SDS011;20624;55.870;26.506;2022-08-21T06:31:11;8.52;;;1.90;;
34359;SDS011;20624;55.870;26.506;2022-08-21T06:33:41;11.98;;;2.95;;
34359;SDS011;20624;55.870;26.506;2022-08-21T06:36:08;8.80;;;2.15;;
34359;SDS011;20624;55.870;26.506;2022-08-21T06:38:36;4.28;;;2.13;;
34359;SDS011;20624;55.870;26.506;2022-08-21T06:41:05;8.20;;;2.70;;
34359;SDS011;20624;55.870;26.506;2022-08-21T06:43:35;9.93;;;2.80;;
34359;SDS011;20624;55.870;26.506;2022-08-21T06:48:33;8.77;;;2.50;;
34359;SDS011;20624;55.870;26.506;2022-08-21T06:51:01;7.18;;;2.33;;
34359;SDS011;20624;55.870;26.506;2022-08-21T06:53:29;14.52;;;4.32;;
34359;SDS011;20624;55.870;26.506;2022-08-21T06:55:59;9.02;;;2.05;;
34359;SDS011;20624;55.870;26.506;2022-08-21T06:58:28;9.82;;;2.25;;
34359;SDS011;20624;55.870;26.506;2022-08-21T07:00:56;14.88;;;2.47;;
34359;SDS011;20624;55.870;26.506;2022-08-21T07:03:31;8.40;;;2.10;;
34359;SDS011;20624;55.870;26.506;2022-08-21T07:05:59;5.97;;;2.13;;
34359;SDS011;20624;55.870;26.506;2022-08-21T07:08:27;6.65;;;1.67;;
34359;SDS011;20624;55.870;26.506;2022-08-21T07:10:57;13.27;;;2.58;;
34359;SDS011;20624;55.870;26.506;2022-08-21T07:13:27;7.25;;;2.28;;
34359;SDS011;20624;55.870;26.506;2022-08-21T07:15:54;8.75;;;2.30;;
34359;SDS011;20624;55.870;26.506;2022-08-21T07:18:28;6.03;;;2.30;;
34359;SDS011;20624;55.870;26.506;2022-08-21T07:20:56;9.93;;;2.45;;
34359;SDS011;20624;55.870;26.506;2022-08-21T07:23:26;8.10;;;1.65;;
34359;SDS011;20624;55.870;26.506;2022-08-21T07:25:59;15.02;;;2.35;;
34359;SDS011;20624;55.870;26.506;2022-08-21T07:28:27;6.70;;;1.90;;
34359;SDS011;20624;55.870;26.506;2022-08-21T07:30:56;5.25;;;1.90;;
34359;SDS011;20624;55.870;26.506;2022-08-21T07:33:25;6.28;;;1.88;;
34359;SDS011;20624;55.870;26.506;2022-08-21T07:35:54;11.27;;;3.10;;
34359;SDS011;20624;55.870;26.506;2022-08-21T07:38:22;8.50;;;2.72;;
34359;SDS011;20624;55.870;26.506;2022-08-21T07:40:50;15.25;;;2.70;;
34359;SDS011;20624;55.870;26.506;2022-08-21T07:43:21;5.00;;;2.50;;
34359;SDS011;20624;55.870;26.506;2022-08-21T07:45:48;10.98;;;2.95;;
34359;SDS011;20624;55.870;26.506;2022-08-21T07:48:16;9.50;;;2.40;;
34359;SDS011;20624;55.870;26.506;2022-08-21T07:50:44;5.47;;;1.52;;
34359;SDS011;20624;55.870;26.506;2022-08-21T07:53:12;9.40;;;2.10;;
34359;SDS011;20624;55.870;26.506;2022-08-21T07:55:40;6.07;;;1.63;;
34359;SDS011;20624;55.870;26.506;2022-08-21T07:58:08;7.07;;;1.98;;
34359;SDS011;20624;55.870;26.506;2022-08-21T08:00:36;12.95;;;2.65;;
34359;SDS011;20624;55.870;26.506;2022-08-21T08:03:04;13.45;;;2.65;;
34359;SDS011;20624;55.870;26.506;2022-08-21T08:05:32;7.90;;;2.47;;
34359;SDS011;20624;55.870;26.506;2022-08-21T08:08:03;10.77;;;2.53;;
34359;SDS011;20624;55.870;26.506;2022-08-21T08:10:31;13.38;;;2.50;;
34359;SDS011;20624;55.870;26.506;2022-08-21T08:12:59;15.80;;;2.33;;
34359;SDS011;20624;55.870;26.506;2022-08-21T08:15:27;8.57;;;2.08;;
34359;SDS011;20624;55.870;26.506;2022-08-21T08:17:59;13.13;;;2.60;;
34359;SDS011;20624;55.870;26.506;2022-08-21T08:20:27;7.30;;;2.40;;
34359;SDS011;20624;55.870;26.506;2022-08-21T08:22:55;11.93;;;2.85;;
34359;SDS011;20624;55.870;26.506;2022-08-21T08:25:23;6.40;;;2.30;;
34359;SDS011;20624;55.870;26.506;2022-08-21T08:27:52;0.88;;;0.77;;
34359;SDS011;20624;55.870;26.506;2022-08-21T08:30:20;0.22;;;0.20;;
34359;SDS011;20624;55.870;26.506;2022-08-21T08:32:48;0.93;;;0.50;;
34359;SDS011;20624;55.870;26.506;2022-08-21T08:35:16;0.30;;;0.22;;
34359;SDS011;20624;55.870;26.506;2022-08-21T08:37:49;0.55;;;0.30;;
34359;SDS011;20624;55.870;26.506;2022-08-21T08:45:42;5.10;;;0.75;;
34359;SDS011;20624;55.870;26.506;2022-08-21T08:48:13;2.67;;;0.93;;
34359;SDS011;20624;55.870;26.506;2022-08-21T08:50:47;1.70;;;0.63;;
34359;SDS011;20624;55.870;26.506;2022-08-21T08:53:23;3.17;;;0.90;;
34359;SDS011;20624;55.870;26.506;2022-08-21T08:55:58;5.25;;;1.83;;
34359;SDS011;20624;55.870;26.506;2022-08-21T08:58:30;2.78;;;1.35;;
34359;SDS011;20624;55.870;26.506;2022-08-21T09:01:01;10.52;;;1.75;;
34359;SDS011;20624;55.870;26.506;2022-08-21T09:03:32;9.13;;;1.75;;
34359;SDS011;20624;55.870;26.506;2022-08-21T09:06:03;12.73;;;1.58;;
34359;SDS011;20624;55.870;26.506;2022-08-21T09:08:56;3.45;;;0.50;;
34359;SDS011;20624;55.870;26.506;2022-08-21T09:11:33;1.60;;;0.50;;
34359;SDS011;20624;55.870;26.506;2022-08-21T09:28:38;7.18;;;0.70;;
34359;SDS011;20624;55.870;26.506;2022-08-21T09:31:30;1.08;;;0.60;;
34359;SDS011;20624;55.870;26.506;2022-08-21T09:33:57;0.73;;;0.52;;
34359;SDS011;20624;55.870;26.506;2022-08-21T09:36:35;2.35;;;1.40;;
34359;SDS011;20624;55.870;26.506;2022-08-21T09:39:05;1.48;;;0.90;;
34359;SDS011;20624;55.870;26.506;2022-08-21T09:41:34;1.73;;;1.15;;
34359;SDS011;20624;55.870;26.506;2022-08-21T09:44:03;0.85;;;0.30;;
34359;SDS011;20624;55.870;26.506;2022-08-21T09:46:31;2.38;;;1.08;;
34359;SDS011;20624;55.870;26.506;2022-08-21T09:49:00;3.05;;;0.80;;
34359;SDS011;20624;55.870;26.506;2022-08-21T09:51:35;5.72;;;0.98;;
34359;SDS011;20624;55.870;26.506;2022-08-21T09:56:33;6.57;;;1.05;;
34359;SDS011;20624;55.870;26.506;2022-08-21T09:59:38;0.63;;;0.32;;
34359;SDS011;20624;55.870;26.506;2022-08-21T10:02:23;2.17;;;0.93;;
34359;SDS011;20624;55.870;26.506;2022-08-21T10:04:55;12.50;;;2.50;;
34359;SDS011;20624;55.870;26.506;2022-08-21T10:07:28;4.55;;;1.08;;
34359;SDS011;20624;55.870;26.506;2022-08-21T10:10:40;6.40;;;2.08;;
34359;SDS011;20624;55.870;26.506;2022-08-21T10:15:36;4.57;;;1.40;;
34359;SDS011;20624;55.870;26.506;2022-08-21T10:29:42;1.30;;;0.80;;
34359;SDS011;20624;55.870;26.506;2022-08-21T10:43:50;0.40;;;0.30;;
34359;SDS011;20624;55.870;26.506;2022-08-21T10:46:33;3.38;;;1.17;;
34359;SDS011;20624;55.870;26.506;2022-08-21T10:55:12;2.95;;;1.25;;
34359;SDS011;20624;55.870;26.506;2022-08-21T11:03:20;7.90;;;1.23;;
34359;SDS011;20624;55.870;26.506;2022-08-21T11:06:27;5.78;;;1.05;;
34359;SDS011;20624;55.870;26.506;2022-08-21T11:09:04;5.18;;;1.20;;
34359;SDS011;20624;55.870;26.506;2022-08-21T11:17:35;6.95;;;1.00;;
34359;SDS011;20624;55.870;26.506;2022-08-21T11:25:22;1.52;;;1.02;;
34359;SDS011;20624;55.870;26.506;2022-08-21T11:28:13;8.77;;;1.20;;
34359;SDS011;20624;55.870;26.506;2022-08-21T11:34:14;3.63;;;1.00;;
34359;SDS011;20624;55.870;26.506;2022-08-21T11:36:57;0.30;;;0.25;;
34359;SDS011;20624;55.870;26.506;2022-08-21T11:39:38;3.55;;;1.10;;
34359;SDS011;20624;55.870;26.506;2022-08-21T11:50:54;1.30;;;0.90;;
34359;SDS011;20624;55.870;26.506;2022-08-21T11:53:33;0.40;;;0.25;;
34359;SDS011;20624;55.870;26.506;2022-08-21T12:01:16;0.52;;;0.40;;
34359;SDS011;20624;55.870;26.506;2022-08-21T12:04:04;5.43;;;1.02;;
34359;SDS011;20624;55.870;26.506;2022-08-21T12:06:44;3.40;;;0.93;;
34359;SDS011;20624;55.870;26.506;2022-08-21T12:12:02;1.23;;;0.50;;
34359;SDS011;20624;55.870;26.506;2022-08-21T12:14:39;5.00;;;1.20;;
34359;SDS011;20624;55.870;26.506;2022-08-21T12:17:08;1.40;;;0.60;;
34359;SDS011;20624;55.870;26.506;2022-08-21T12:19:56;1.55;;;0.65;;
34359;SDS011;20624;55.870;26.506;2022-08-21T12:22:35;6.45;;;1.95;;
34359;SDS011;20624;55.870;26.506;2022-08-21T12:25:08;0.10;;;0.10;;
34359;SDS011;20624;55.870;26.506;2022-08-21T12:27:53;1.98;;;1.00;;
34359;SDS011;20624;55.870;26.506;2022-08-21T12:33:01;1.50;;;0.68;;
34359;SDS011;20624;55.870;26.506;2022-08-21T12:35:37;2.08;;;0.70;;
34359;SDS011;20624;55.870;26.506;2022-08-21T12:41:14;6.70;;;0.85;;
34359;SDS011;20624;55.870;26.506;2022-08-21T12:44:31;13.80;;;1.80;;
34359;SDS011;20624;55.870;26.506;2022-08-21T12:46:50;0.63;;;0.52;;
34359;SDS011;20624;55.870;26.506;2022-08-21T12:52:41;8.57;;;1.38;;
34359;SDS011;20624;55.870;26.506;2022-08-21T12:55:11;6.47;;;1.83;;
34359;SDS011;20624;55.870;26.506;2022-08-21T12:57:42;0.55;;;0.40;;
34359;SDS011;20624;55.870;26.506;2022-08-21T13:00:12;0.95;;;0.88;;
34359;SDS011;20624;55.870;26.506;2022-08-21T13:02:46;2.40;;;0.80;;
34359;SDS011;20624;55.870;26.506;2022-08-21T13:05:37;1.13;;;0.43;;
34359;SDS011;20624;55.870;26.506;2022-08-21T13:08:07;0.88;;;0.68;;
34359;SDS011;20624;55.870;26.506;2022-08-21T13:10:40;1.95;;;1.13;;
34359;SDS011;20624;55.870;26.506;2022-08-21T13:13:17;2.95;;;1.13;;
34359;SDS011;20624;55.870;26.506;2022-08-21T13:16:01;2.40;;;1.10;;
34359;SDS011;20624;55.870;26.506;2022-08-21T13:18:32;1.23;;;0.25;;
34359;SDS011;20624;55.870;26.506;2022-08-21T13:23:33;3.08;;;1.02;;
34359;SDS011;20624;55.870;26.506;2022-08-21T13:26:11;3.35;;;1.20;;
34359;SDS011;20624;55.870;26.506;2022-08-21T13:28:51;4.57;;;1.42;;
34359;SDS011;20624;55.870;26.506;2022-08-21T13:31:27;6.70;;;1.67;;
34359;SDS011;20624;55.870;26.506;2022-08-21T13:33:57;0.32;;;0.17;;
34359;SDS011;20624;55.870;26.506;2022-08-21T13:36:34;0.55;;;0.30;;
34359;SDS011;20624;55.870;26.506;2022-08-21T13:39:04;7.82;;;1.02;;
34359;SDS011;20624;55.870;26.506;2022-08-21T13:41:36;2.72;;;1.20;;
34359;SDS011;20624;55.870;26.506;2022-08-21T13:44:14;4.10;;;1.20;;
34359;SDS011;20624;55.870;26.506;2022-08-21T13:47:03;1.00;;;0.63;;
34359;SDS011;20624;55.870;26.506;2022-08-21T13:49:33;9.30;;;1.10;;
34359;SDS011;20624;55.870;26.506;2022-08-21T13:52:13;4.72;;;1.52;;
34359;SDS011;20624;55.870;26.506;2022-08-21T13:54:56;4.53;;;1.10;;
34359;SDS011;20624;55.870;26.506;2022-08-21T14:00:43;3.67;;;0.95;;
34359;SDS011;20624;55.870;26.506;2022-08-21T14:02:46;5.15;;;1.35;;
34359;SDS011;20624;55.870;26.506;2022-08-21T14:05:21;0.75;;;0.75;;
34359;SDS011;20624;55.870;26.506;2022-08-21T14:08:26;0.70;;;0.60;;
34359;SDS011;20624;55.870;26.506;2022-08-21T14:11:14;5.95;;;0.95;;
34359;SDS011;20624;55.870;26.506;2022-08-21T14:13:43;1.35;;;0.47;;
34359;SDS011;20624;55.870;26.506;2022-08-21T14:16:20;8.30;;;1.77;;
34359;SDS011;20624;55.870;26.506;2022-08-21T14:18:53;0.77;;;0.38;;
34359;SDS011;20624;55.870;26.506;2022-08-21T14:21:36;3.85;;;0.90;;
34359;SDS011;20624;55.870;26.506;2022-08-21T14:26:36;7.65;;;1.55;;
34359;SDS011;20624;55.870;26.506;2022-08-21T14:29:35;1.30;;;0.52;;
34359;SDS011;20624;55.870;26.506;2022-08-21T14:32:12;3.95;;;1.17;;
34359;SDS011;20624;55.870;26.506;2022-08-21T14:34:52;2.85;;;1.25;;
34359;SDS011;20624;55.870;26.506;2022-08-21T14:37:23;1.38;;;0.90;;
34359;SDS011;20624;55.870;26.506;2022-08-21T14:39:51;2.97;;;0.98;;
34359;SDS011;20624;55.870;26.506;2022-08-21T14:42:19;1.90;;;0.90;;
34359;SDS011;20624;55.870;26.506;2022-08-21T14:44:47;4.60;;;1.20;;
34359;SDS011;20624;55.870;26.506;2022-08-21T14:47:15;3.35;;;0.93;;
34359;SDS011;20624;55.870;26.506;2022-08-21T14:49:45;1.55;;;0.63;;
34359;SDS011;20624;55.870;26.506;2022-08-21T14:52:13;1.60;;;0.35;;
34359;SDS011;20624;55.870;26.506;2022-08-21T14:54:40;1.52;;;0.50;;
34359;SDS011;20624;55.870;26.506;2022-08-21T14:57:08;2.15;;;0.73;;
34359;SDS011;20624;55.870;26.506;2022-08-21T14:59:39;0.28;;;0.13;;
34359;SDS011;20624;55.870;26.506;2022-08-21T15:02:08;4.97;;;1.63;;
34359;SDS011;20624;55.870;26.506;2022-08-21T15:04:35;1.65;;;0.90;;
34359;SDS011;20624;55.870;26.506;2022-08-21T15:07:05;3.22;;;1.08;;
34359;SDS011;20624;55.870;26.506;2022-08-21T15:09:33;3.15;;;1.08;;
34359;SDS011;20624;55.870;26.506;2022-08-21T15:12:01;4.20;;;1.45;;
34359;SDS011;20624;55.870;26.506;2022-08-21T15:14:30;7.25;;;1.35;;
34359;SDS011;20624;55.870;26.506;2022-08-21T15:19:29;2.10;;;0.73;;
34359;SDS011;20624;55.870;26.506;2022-08-21T15:22:00;5.13;;;1.20;;
34359;SDS011;20624;55.870;26.506;2022-08-21T15:24:27;2.90;;;1.50;;
34359;SDS011;20624;55.870;26.506;2022-08-21T15:26:55;3.80;;;1.17;;
34359;SDS011;20624;55.870;26.506;2022-08-21T15:29:25;4.72;;;0.85;;
34359;SDS011;20624;55.870;26.506;2022-08-21T15:32:03;1.98;;;1.45;;
34359;SDS011;20624;55.870;26.506;2022-08-21T15:34:53;3.25;;;1.70;;
34359;SDS011;20624;55.870;26.506;2022-08-21T15:37:25;6.97;;;1.20;;
34359;SDS011;20624;55.870;26.506;2022-08-21T15:39:52;1.02;;;0.55;;
34359;SDS011;20624;55.870;26.506;2022-08-21T15:42:21;6.57;;;1.42;;
34359;SDS011;20624;55.870;26.506;2022-08-21T15:44:49;11.52;;;1.63;;
34359;SDS011;20624;55.870;26.506;2022-08-21T15:47:18;0.95;;;0.82;;
34359;SDS011;20624;55.870;26.506;2022-08-21T15:49:48;6.63;;;1.50;;
34359;SDS011;20624;55.870;26.506;2022-08-21T15:52:17;1.95;;;0.60;;
34359;SDS011;20624;55.870;26.506;2022-08-21T15:54:46;9.65;;;2.03;;
34359;SDS011;20624;55.870;26.506;2022-08-21T15:57:15;5.95;;;1.23;;
34359;SDS011;20624;55.870;26.506;2022-08-21T15:59:46;1.73;;;0.75;;
34359;SDS011;20624;55.870;26.506;2022-08-21T16:02:15;27.77;;;4.40;;
34359;SDS011;20624;55.870;26.506;2022-08-21T16:04:55;4.72;;;1.35;;
34359;SDS011;20624;55.870;26.506;2022-08-21T16:07:23;4.65;;;1.90;;
34359;SDS011;20624;55.870;26.506;2022-08-21T16:09:51;6.75;;;2.88;;
34359;SDS011;20624;55.870;26.506;2022-08-21T16:12:25;12.02;;;2.33;;
34359;SDS011;20624;55.870;26.506;2022-08-21T16:14:57;3.53;;;1.40;;
34359;SDS011;20624;55.870;26.506;2022-08-21T16:17:29;5.78;;;2.28;;
34359;SDS011;20624;55.870;26.506;2022-08-21T16:20:01;6.03;;;1.65;;
34359;SDS011;20624;55.870;26.506;2022-08-21T16:22:34;5.45;;;1.98;;
34359;SDS011;20624;55.870;26.506;2022-08-21T16:25:10;2.15;;;0.75;;
34359;SDS011;20624;55.870;26.506;2022-08-21T16:27:38;3.90;;;1.17;;
34359;SDS011;20624;55.870;26.506;2022-08-21T16:30:09;2.38;;;1.15;;
34359;SDS011;20624;55.870;26.506;2022-08-21T16:32:37;2.85;;;1.30;;
34359;SDS011;20624;55.870;26.506;2022-08-21T16:35:04;3.90;;;0.80;;
34359;SDS011;20624;55.870;26.506;2022-08-21T16:37:32;0.80;;;0.60;;
34359;SDS011;20624;55.870;26.506;2022-08-21T16:40:00;1.98;;;1.02;;
34359;SDS011;20624;55.870;26.506;2022-08-21T16:42:27;2.03;;;0.60;;
34359;SDS011;20624;55.870;26.506;2022-08-21T16:44:58;9.45;;;2.08;;
34359;SDS011;20624;55.870;26.506;2022-08-21T16:47:26;1.48;;;0.80;;
34359;SDS011;20624;55.870;26.506;2022-08-21T16:49:53;5.45;;;1.70;;
34359;SDS011;20624;55.870;26.506;2022-08-21T16:52:22;0.35;;;0.30;;
34359;SDS011;20624;55.870;26.506;2022-08-21T16:54:50;3.33;;;0.88;;
34359;SDS011;20624;55.870;26.506;2022-08-21T16:57:18;0.93;;;0.38;;
34359;SDS011;20624;55.870;26.506;2022-08-21T16:59:46;1.40;;;0.70;;
34359;SDS011;20624;55.870;26.506;2022-08-21T17:02:34;3.28;;;1.38;;
34359;SDS011;20624;55.870;26.506;2022-08-21T17:05:05;5.88;;;1.52;;
34359;SDS011;20624;55.870;26.506;2022-08-21T17:07:40;0.10;;;0.10;;